Time;durP1;ratioP1;P1;durP2;ratioP2;P2;SDS_P1;SDS_P2;PMS_P1;PMS_P2;Temp;Humidity;BMP_temperature;BMP_pressure;BME280_temperature;BME280_humidity;BME280_pressure;Samples;Min_cycle;Max_cycle;Signal;HPM_P1;HPM_P2
2024/03/06 00:01:34;;;;;;;7.93;5.00;;;;;5.20;98598.00;;;;4861783;29;20057;-69
2024/03/06 00:04:03;;;;;;;7.20;4.68;;;;;5.10;98586.00;;;;4861906;29;20057;-68
2024/03/06 00:06:30;;;;;;;7.85;4.80;;;;;5.00;98594.00;;;;4862941;29;20132;-67
2024/03/06 00:08:57;;;;;;;9.30;5.32;;;;;4.80;98604.00;;;;4863213;29;20120;-67
2024/03/06 00:11:23;;;;;;;8.95;5.68;;;;;4.80;98595.00;;;;4877457;29;20143;-66
2024/03/06 00:13:50;;;;;;;8.43;5.20;;;;;4.80;98598.00;;;;4862098;29;20475;-66
2024/03/06 00:16:18;;;;;;;8.57;4.78;;;;;4.90;98603.00;;;;4876899;29;20053;-67
2024/03/06 00:18:46;;;;;;;7.65;5.30;;;;;5.10;98614.00;;;;4862519;29;20484;-67
2024/03/06 00:21:13;;;;;;;6.53;4.40;;;;;5.20;98600.00;;;;4877256;29;20061;-67
2024/03/06 00:23:39;;;;;;;9.95;5.30;;;;;5.40;98611.00;;;;4862848;29;20053;-66
2024/03/06 00:26:06;;;;;;;9.23;5.07;;;;;5.50;98620.00;;;;4862641;29;20128;-67
2024/03/06 00:28:33;;;;;;;7.13;4.78;;;;;5.50;98617.00;;;;4861559;29;20495;-67
2024/03/06 00:30:59;;;;;;;7.38;5.03;;;;;5.50;98621.00;;;;4862038;29;20445;-67
2024/03/06 00:33:26;;;;;;;10.00;5.05;;;;;5.50;98624.00;;;;4862180;29;20046;-67
2024/03/06 00:35:52;;;;;;;9.40;4.40;;;;;5.50;98613.00;;;;4876977;29;20055;-67
2024/03/06 00:38:19;;;;;;;9.00;5.18;;;;;5.60;98619.00;;;;4848650;29;20057;-67
2024/03/06 00:40:46;;;;;;;7.25;5.30;;;;;5.50;98618.00;;;;4864273;29;20058;-67
2024/03/06 00:43:12;;;;;;;6.90;5.20;;;;;5.50;98618.00;;;;4862396;29;20049;-67
2024/03/06 00:45:39;;;;;;;8.82;5.20;;;;;5.60;98622.00;;;;4860650;29;20113;-67
2024/03/06 00:48:06;;;;;;;7.03;5.03;;;;;5.50;98623.00;;;;4860984;29;20046;-67
2024/03/06 00:50:33;;;;;;;7.20;4.45;;;;;5.40;98639.00;;;;4863190;29;20045;-67
2024/03/06 00:53:00;;;;;;;8.93;4.88;;;;;5.20;98639.00;;;;4877569;29;20065;-67
2024/03/06 00:55:26;;;;;;;6.00;4.32;;;;;5.10;98615.00;;;;4876631;29;20053;-67
2024/03/06 00:57:53;;;;;;;8.18;5.00;;;;;5.10;98624.00;;;;4862814;29;20137;-67
2024/03/06 01:00:20;;;;;;;7.63;4.35;;;;;5.10;98620.00;;;;4862029;29;20132;-67
2024/03/06 01:02:47;;;;;;;5.38;4.40;;;;;5.20;98615.00;;;;4861832;29;20079;-67
2024/03/06 01:05:13;;;;;;;6.80;4.80;;;;;5.20;98621.00;;;;4862048;29;20045;-67
2024/03/06 01:07:40;;;;;;;8.52;5.50;;;;;5.00;98619.00;;;;4860978;29;20050;-67
2024/03/06 01:10:08;;;;;;;7.47;4.85;;;;;4.90;98618.00;;;;4862279;29;20054;-67
2024/03/06 01:12:35;;;;;;;6.72;4.68;;;;;4.90;98622.00;;;;4860673;29;20067;-67
2024/03/06 01:15:02;;;;;;;8.23;4.85;;;;;4.90;98619.00;;;;4860245;29;20050;-67
2024/03/06 01:17:29;;;;;;;9.65;5.90;;;;;5.00;98615.00;;;;4861027;29;20049;-67
2024/03/06 01:19:56;;;;;;;8.65;5.10;;;;;5.00;98615.00;;;;4860801;29;20049;-67
2024/03/06 01:22:23;;;;;;;8.02;5.07;;;;;4.80;98623.00;;;;4861948;29;20057;-67
2024/03/06 01:24:50;;;;;;;7.55;4.95;;;;;4.60;98627.00;;;;4861697;29;20494;-67
2024/03/06 01:27:17;;;;;;;7.07;4.88;;;;;4.60;98626.00;;;;4860236;29;20511;-67
2024/03/06 01:29:43;;;;;;;12.55;6.97;;;;;4.50;98621.00;;;;4860644;29;20141;-67
2024/03/06 01:32:10;;;;;;;12.15;6.00;;;;;4.50;98623.00;;;;4875793;29;20061;-67
2024/03/06 01:34:37;;;;;;;10.25;5.20;;;;;4.50;98623.00;;;;4860608;29;20057;-67
2024/03/06 01:37:04;;;;;;;7.18;4.72;;;;;4.60;98624.00;;;;4861363;29;20081;-67
2024/03/06 01:39:30;;;;;;;7.90;5.32;;;;;4.80;98631.00;;;;4859964;29;20101;-67
2024/03/06 01:41:57;;;;;;;6.03;3.95;;;;;4.70;98629.00;;;;4860210;29;20132;-67
2024/03/06 01:44:24;;;;;;;7.40;4.53;;;;;4.70;98623.00;;;;4861129;29;20133;-67
2024/03/06 01:46:50;;;;;;;9.30;5.13;;;;;4.60;98641.00;;;;4861324;29;20129;-67
2024/03/06 01:49:18;;;;;;;10.27;5.13;;;;;4.60;98642.00;;;;4861662;29;20053;-67
2024/03/06 01:51:59;;;;;;;8.57;5.70;;;;;4.80;98643.00;;;;4860127;29;20454;-67
2024/03/06 01:54:26;;;;;;;10.27;5.32;;;;;4.90;98636.00;;;;4859723;29;20563;-68
2024/03/06 01:56:55;;;;;;;7.82;5.50;;;;;4.80;98636.00;;;;4860586;29;20055;-67
2024/03/06 01:59:25;;;;;;;13.35;6.68;;;;;4.70;98639.00;;;;4860526;29;20117;-67
2024/03/06 02:02:03;;;;;;;11.45;6.18;;;;;4.40;98637.00;;;;4859875;29;20049;-67
2024/03/06 02:04:31;;;;;;;10.55;6.70;;;;;4.40;98628.00;;;;4860221;29;20053;-67
2024/03/06 02:06:58;;;;;;;17.05;8.68;;;;;4.30;98637.00;;;;4861051;29;20050;-67
2024/03/06 02:09:25;;;;;;;13.35;7.75;;;;;4.10;98624.00;;;;4862235;29;20563;-67
2024/03/06 02:11:51;;;;;;;16.17;8.57;;;;;4.10;98625.00;;;;4859604;29;20053;-65
2024/03/06 02:14:18;;;;;;;13.98;6.28;;;;;4.20;98622.00;;;;4860013;29;20129;-65
2024/03/06 02:16:45;;;;;;;16.77;8.35;;;;;4.30;98621.00;;;;4860371;29;20077;-65
2024/03/06 02:19:11;;;;;;;14.43;6.80;;;;;4.50;98621.00;;;;4864557;29;20132;-65
2024/03/06 02:21:38;;;;;;;15.05;7.03;;;;;4.60;98618.00;;;;4866043;29;20092;-66
2024/03/06 02:24:05;;;;;;;11.68;6.10;;;;;4.60;98626.00;;;;4847179;29;20092;-65
2024/03/06 02:26:31;;;;;;;8.65;4.95;;;;;4.60;98628.00;;;;4845420;29;20152;-65
2024/03/06 02:28:58;;;;;;;11.23;5.88;;;;;4.60;98628.00;;;;4859657;29;20063;-66
2024/03/06 02:31:25;;;;;;;7.90;5.68;;;;;4.60;98634.00;;;;4875056;29;20491;-66
2024/03/06 02:33:51;;;;;;;7.90;5.50;;;;;4.60;98626.00;;;;4859616;29;20049;-66
2024/03/06 02:36:18;;;;;;;10.88;5.72;;;;;4.70;98628.00;;;;4859934;29;20482;-66
2024/03/06 02:38:45;;;;;;;10.88;6.07;;;;;4.40;98628.00;;;;4875082;29;20054;-66
2024/03/06 02:41:15;;;;;;;11.43;6.10;;;;;4.20;98630.00;;;;4860849;29;20045;-66
2024/03/06 02:43:42;;;;;;;12.55;6.40;;;;;4.00;98632.00;;;;4859348;29;20057;-66
2024/03/06 02:46:09;;;;;;;10.50;6.72;;;;;3.90;98642.00;;;;4859756;29;20054;-66
2024/03/06 02:48:36;;;;;;;14.07;8.38;;;;;4.00;98645.00;;;;4861239;29;20073;-66
2024/03/06 02:51:03;;;;;;;9.88;6.28;;;;;4.20;98636.00;;;;4859639;29;20045;-66
2024/03/06 02:53:30;;;;;;;12.95;6.53;;;;;4.30;98638.00;;;;4861426;29;20494;-66
2024/03/06 02:55:56;;;;;;;13.68;7.25;;;;;4.30;98650.00;;;;4859904;29;20061;-66
2024/03/06 02:58:23;;;;;;;14.88;8.70;;;;;4.10;98636.00;;;;4844957;29;20056;-66
2024/03/06 03:00:50;;;;;;;14.63;8.93;;;;;4.00;98644.00;;;;4860080;29;20065;-66
2024/03/06 03:03:17;;;;;;;13.68;8.60;;;;;4.00;98642.00;;;;4860808;29;20085;-66
2024/03/06 03:05:43;;;;;;;13.73;8.20;;;;;4.00;98643.00;;;;4860100;29;20399;-66
2024/03/06 03:08:10;;;;;;;13.13;8.55;;;;;3.80;98641.00;;;;4859780;29;20417;-66
2024/03/06 03:10:37;;;;;;;12.82;8.07;;;;;3.80;98637.00;;;;4861651;29;20160;-66
2024/03/06 03:13:04;;;;;;;19.95;9.25;;;;;3.90;98637.00;;;;4862619;29;20057;-66
2024/03/06 03:15:32;;;;;;;18.40;8.10;;;;;3.90;98634.00;;;;4878247;29;20451;-66
2024/03/06 03:17:59;;;;;;;13.43;8.27;;;;;4.10;98632.00;;;;4862741;29;20049;-66
2024/03/06 03:20:26;;;;;;;13.68;8.32;;;;;4.30;98635.00;;;;4862397;29;20050;-66
2024/03/06 03:22:52;;;;;;;13.98;8.52;;;;;4.40;98642.00;;;;4862941;29;20050;-66
2024/03/06 03:25:21;;;;;;;9.32;7.32;;;;;4.50;98647.00;;;;4863539;29;20132;-66
2024/03/06 03:27:48;;;;;;;15.38;7.18;;;;;4.60;98653.00;;;;4862390;29;20049;-66
2024/03/06 03:30:16;;;;;;;15.48;7.45;;;;;4.60;98642.00;;;;4864368;29;20041;-66
2024/03/06 03:32:42;;;;;;;19.10;7.68;;;;;4.60;98637.00;;;;4846970;29;20057;-66
2024/03/06 03:35:09;;;;;;;14.18;6.88;;;;;4.60;98640.00;;;;4863624;29;20052;-66
2024/03/06 03:37:36;;;;;;;17.13;7.95;;;;;4.60;98649.00;;;;4863472;29;20109;-66
2024/03/06 03:40:03;;;;;;;14.40;7.80;;;;;4.50;98645.00;;;;4862103;29;20045;-66
2024/03/06 03:42:30;;;;;;;13.38;7.47;;;;;4.50;98652.00;;;;4863519;29;20050;-67
2024/03/06 03:44:56;;;;;;;17.65;8.73;;;;;4.60;98648.00;;;;4862506;29;20069;-67
2024/03/06 03:47:23;;;;;;;14.55;7.18;;;;;4.60;98652.00;;;;4862483;29;20049;-68
2024/03/06 03:49:50;;;;;;;16.30;7.30;;;;;4.30;98649.00;;;;4862381;29;20042;-68
2024/03/06 03:52:32;;;;;;;12.73;7.28;;;;;4.10;98645.00;;;;4862238;29;20109;-68
2024/03/06 03:54:59;;;;;;;13.57;8.23;;;;;3.90;98654.00;;;;4863567;29;20459;-68
2024/03/06 03:57:26;;;;;;;16.42;8.55;;;;;3.80;98657.00;;;;4862349;29;20057;-68
2024/03/06 03:59:53;;;;;;;15.93;8.25;;;;;3.90;98662.00;;;;4863196;29;20045;-68
2024/03/06 04:02:21;;;;;;;14.07;8.50;;;;;3.90;98662.00;;;;4870918;29;20049;-69
2024/03/06 04:04:48;;;;;;;13.27;8.63;;;;;3.70;98663.00;;;;4870794;29;20056;-70
2024/03/06 04:07:16;;;;;;;15.43;8.93;;;;;3.80;98660.00;;;;4867771;29;20045;-68
2024/03/06 04:09:43;;;;;;;14.02;8.77;;;;;3.90;98665.00;;;;4863509;29;20082;-67
2024/03/06 04:12:09;;;;;;;13.20;8.32;;;;;3.90;98663.00;;;;4861560;29;20053;-68
2024/03/06 04:14:36;;;;;;;17.98;8.93;;;;;4.00;98661.00;;;;4863387;29;20060;-67
2024/03/06 04:17:03;;;;;;;14.35;8.70;;;;;3.90;98660.00;;;;4861668;29;20060;-68
2024/03/06 04:19:31;;;;;;;14.93;9.25;;;;;3.80;98658.00;;;;4862070;29;20136;-65
2024/03/06 04:21:58;;;;;;;13.30;8.52;;;;;3.90;98660.00;;;;4861342;29;20050;-65
2024/03/06 04:24:24;;;;;;;13.80;8.75;;;;;4.00;98664.00;;;;4861543;29;20144;-66
2024/03/06 04:26:51;;;;;;;17.08;9.95;;;;;4.00;98662.00;;;;4862557;29;20057;-65
2024/03/06 04:29:18;;;;;;;13.82;8.57;;;;;3.90;98670.00;;;;4862617;29;20073;-65
2024/03/06 04:31:44;;;;;;;19.52;12.30;;;;;4.00;98674.00;;;;4862487;29;20398;-65
2024/03/06 04:34:11;;;;;;;15.65;9.80;;;;;4.10;98672.00;;;;4861097;29;20144;-65
2024/03/06 04:36:38;;;;;;;17.25;9.27;;;;;4.20;98666.00;;;;4861088;29;20136;-65
2024/03/06 04:39:07;;;;;;;14.63;9.27;;;;;4.30;98669.00;;;;4862336;29;20053;-65
2024/03/06 04:41:34;;;;;;;14.95;8.95;;;;;4.40;98674.00;;;;4862317;29;20140;-66
2024/03/06 04:44:01;;;;;;;14.13;8.95;;;;;4.40;98679.00;;;;4860884;29;20061;-66
2024/03/06 04:46:27;;;;;;;11.88;8.30;;;;;4.30;98681.00;;;;4876363;29;20092;-66
2024/03/06 04:48:54;;;;;;;13.13;7.93;;;;;4.30;98679.00;;;;4862539;29;20128;-66
2024/03/06 04:51:21;;;;;;;16.65;8.40;;;;;4.30;98696.00;;;;4876225;29;20097;-66
2024/03/06 04:53:48;;;;;;;21.02;7.40;;;;;4.20;98698.00;;;;4862398;29;20558;-66
2024/03/06 04:56:16;;;;;;;19.30;8.68;;;;;4.20;98695.00;;;;4860640;29;20054;-66
2024/03/06 04:58:44;;;;;;;14.95;8.38;;;;;4.10;98694.00;;;;4860510;29;20053;-66
2024/03/06 05:01:14;;;;;;;18.42;9.73;;;;;4.10;98699.00;;;;4860402;29;20049;-66
2024/03/06 05:03:40;;;;;;;16.75;9.65;;;;;4.20;98712.00;;;;4861859;29;20487;-66
2024/03/06 05:06:25;;;;;;;14.38;8.95;;;;;4.20;98718.00;;;;4861204;29;20056;-66
2024/03/06 05:09:11;;;;;;;15.07;9.40;;;;;4.20;98724.00;;;;4860733;29;20048;-65
2024/03/06 05:11:56;;;;;;;12.55;9.13;;;;;4.20;98724.00;;;;4863281;29;20033;-66
2024/03/06 05:14:43;;;;;;;10.57;7.25;;;;;4.20;98726.00;;;;4874018;29;20046;-66
2024/03/06 05:17:27;;;;;;;13.15;8.75;;;;;4.10;98734.00;;;;4862024;29;20041;-66
2024/03/06 05:20:12;;;;;;;16.10;8.50;;;;;4.00;98737.00;;;;4861042;29;20045;-66
2024/03/06 05:22:57;;;;;;;11.80;7.93;;;;;3.90;98737.00;;;;4862915;29;20049;-66
2024/03/06 05:25:41;;;;;;;;;;;;;3.90;98743.00;;;;4861379;29;20046;-66
2024/03/06 05:28:25;;;;;;;24.70;12.57;;;;;4.00;98744.00;;;;4861490;29;19972;-66
2024/03/06 05:31:18;;;;;;;13.70;7.65;;;;;4.00;98742.00;;;;4860147;29;20041;-66
2024/03/06 05:34:04;;;;;;;12.25;8.02;;;;;4.00;98738.00;;;;4859925;29;20048;-66
2024/03/06 05:36:49;;;;;;;12.52;7.75;;;;;4.00;98747.00;;;;4860191;29;20112;-66
2024/03/06 05:39:37;;;;;;;;;;;;;4.20;98753.00;;;;4862469;29;20530;-66
2024/03/06 05:42:21;;;;;;;12.43;7.53;;;;;4.30;98754.00;;;;4862278;29;19985;-66
2024/03/06 05:45:10;;;;;;;13.98;8.02;;;;;4.40;98753.00;;;;4864486;29;20029;-66
2024/03/06 05:47:54;;;;;;;12.10;7.50;;;;;4.40;98761.00;;;;4862618;29;20498;-66
2024/03/06 05:50:38;;;;;;;12.27;7.32;;;;;4.50;98768.00;;;;4860280;29;20029;-66
2024/03/06 05:53:23;;;;;;;15.00;7.40;;;;;4.60;98768.00;;;;4846964;29;20045;-66
2024/03/06 05:56:07;;;;;;;;;;;;;4.70;98767.00;;;;4860610;29;20037;-66
2024/03/06 05:58:51;;;;;;;11.88;7.53;;;;;4.50;98769.00;;;;4859908;29;20432;-66
2024/03/06 06:01:21;;;;;;;14.20;8.18;;;;;4.50;98779.00;;;;4859644;29;20136;-68
2024/03/06 06:03:48;;;;;;;13.60;8.15;;;;;4.60;98784.00;;;;4860063;29;20045;-66
2024/03/06 06:06:16;;;;;;;12.60;7.72;;;;;4.70;98788.00;;;;4859765;29;20058;-66
2024/03/06 06:08:44;;;;;;;14.35;8.80;;;;;4.80;98788.00;;;;4861589;29;20038;-65
2024/03/06 06:11:11;;;;;;;14.05;8.00;;;;;4.90;98798.00;;;;4861275;29;20042;-67
2024/03/06 06:13:41;;;;;;;13.30;8.10;;;;;4.80;98799.00;;;;4860814;29;20049;-66
2024/03/06 06:16:08;;;;;;;14.80;8.52;;;;;4.80;98808.00;;;;4859855;29;20048;-66
2024/03/06 06:18:35;;;;;;;12.75;7.63;;;;;4.90;98801.00;;;;4860828;29;20476;-66
2024/03/06 06:21:01;;;;;;;20.05;12.30;;;;;4.80;98812.00;;;;4860837;29;20071;-66
2024/03/06 06:23:28;;;;;;;14.68;8.85;;;;;4.80;98812.00;;;;4861375;29;20081;-67
2024/03/06 06:25:55;;;;;;;13.02;8.05;;;;;4.80;98809.00;;;;4860210;29;20045;-67
2024/03/06 06:28:23;;;;;;;13.23;8.05;;;;;4.80;98816.00;;;;4859566;29;20058;-66
2024/03/06 06:30:52;;;;;;;14.25;7.97;;;;;4.90;98809.00;;;;4860892;29;20480;-66
2024/03/06 06:33:19;;;;;;;13.75;8.30;;;;;5.00;98819.00;;;;4859609;29;20144;-66
2024/03/06 06:35:46;;;;;;;11.52;8.10;;;;;5.00;98832.00;;;;4859560;29;20053;-66
2024/03/06 06:38:13;;;;;;;13.43;8.00;;;;;5.00;98824.00;;;;4859983;29;20054;-66
2024/03/06 06:40:43;;;;;;;14.25;8.77;;;;;5.00;98833.00;;;;4860720;29;20068;-66
2024/03/06 06:43:10;;;;;;;15.00;8.02;;;;;4.90;98838.00;;;;4859648;29;20111;-67
2024/03/06 06:45:37;;;;;;;14.82;8.40;;;;;5.00;98844.00;;;;4863444;29;20444;-66
2024/03/06 06:48:05;;;;;;;15.13;9.05;;;;;5.00;98842.00;;;;4865030;29;20045;-66
2024/03/06 06:50:33;;;;;;;16.27;8.70;;;;;4.90;98848.00;;;;4863752;29;20414;-66
2024/03/06 06:53:00;;;;;;;18.38;8.75;;;;;4.70;98836.00;;;;4863109;29;20046;-66
2024/03/06 06:55:27;;;;;;;15.10;9.02;;;;;4.60;98830.00;;;;4864000;29;20156;-66
2024/03/06 06:57:54;;;;;;;14.57;8.65;;;;;4.70;98843.00;;;;4863974;29;20125;-66
2024/03/06 07:00:22;;;;;;;13.65;8.65;;;;;4.90;98832.00;;;;4863732;29;20483;-66
2024/03/06 07:02:50;;;;;;;14.40;8.55;;;;;5.10;98838.00;;;;4862461;29;20503;-66
2024/03/06 07:05:17;;;;;;;16.33;8.82;;;;;5.20;98854.00;;;;4864468;29;20045;-66
2024/03/06 07:07:44;;;;;;;14.82;8.25;;;;;5.30;98851.00;;;;4863246;29;20049;-66
2024/03/06 07:10:11;;;;;;;13.90;9.00;;;;;5.20;98850.00;;;;4863677;29;20065;-66
2024/03/06 07:12:38;;;;;;;11.93;7.95;;;;;5.10;98856.00;;;;4863793;29;20116;-66
2024/03/06 07:15:06;;;;;;;13.25;8.18;;;;;5.30;98853.00;;;;4862452;29;20526;-66
2024/03/06 07:17:32;;;;;;;12.98;8.70;;;;;5.50;98853.00;;;;4862648;29;20566;-66
2024/03/06 07:20:00;;;;;;;14.68;8.30;;;;;5.60;98857.00;;;;4862349;29;20056;-66
2024/03/06 07:22:27;;;;;;;12.63;8.00;;;;;5.70;98851.00;;;;4863428;29;20049;-66
2024/03/06 07:24:54;;;;;;;14.38;8.52;;;;;5.80;98862.00;;;;4858522;29;20060;-66
2024/03/06 07:27:21;;;;;;;17.88;8.68;;;;;5.80;98867.00;;;;4845625;29;20102;-66
2024/03/06 07:29:47;;;;;;;13.60;7.90;;;;;5.90;98867.00;;;;4845352;29;20114;-66
2024/03/06 07:32:14;;;;;;;13.65;8.27;;;;;6.00;98863.00;;;;4845200;29;20137;-66
2024/03/06 07:34:41;;;;;;;14.05;9.45;;;;;6.00;98870.00;;;;4859181;29;20053;-65
2024/03/06 07:37:07;;;;;;;14.88;9.13;;;;;6.00;98868.00;;;;4859056;29;20060;-64
2024/03/06 07:39:34;;;;;;;16.30;9.73;;;;;6.10;98874.00;;;;4844821;29;20054;-64
2024/03/06 07:42:02;;;;;;;18.33;10.57;;;;;6.10;98864.00;;;;4844009;29;20042;-66
2024/03/06 07:44:29;;;;;;;17.13;10.32;;;;;6.00;98874.00;;;;4859249;29;20373;-65
2024/03/06 07:46:55;;;;;;;19.67;11.38;;;;;5.90;98876.00;;;;4844809;29;20072;-65
2024/03/06 07:49:22;;;;;;;22.60;10.68;;;;;5.90;98881.00;;;;4844853;29;20086;-66
2024/03/06 07:51:49;;;;;;;18.83;10.77;;;;;5.90;98877.00;;;;4843474;29;20069;-66
2024/03/06 07:54:15;;;;;;;17.35;10.15;;;;;6.00;98873.00;;;;4844896;29;20045;-65
2024/03/06 07:56:42;;;;;;;17.65;10.27;;;;;6.20;98886.00;;;;4873840;29;20077;-66
2024/03/06 07:59:11;;;;;;;15.32;9.02;;;;;6.50;98883.00;;;;4845373;29;20110;-66
2024/03/06 08:01:38;;;;;;;20.05;11.68;;;;;6.60;98886.00;;;;4858513;29;20054;-66
2024/03/06 08:04:05;;;;;;;13.98;9.00;;;;;6.70;98888.00;;;;4858665;29;20058;-65
2024/03/06 08:06:32;;;;;;;13.15;9.02;;;;;6.80;98902.00;;;;4858601;29;20058;-66
2024/03/06 08:08:59;;;;;;;25.25;15.07;;;;;7.00;98902.00;;;;4859057;29;20052;-66
2024/03/06 08:11:28;;;;;;;15.15;10.02;;;;;7.00;98903.00;;;;4844986;29;20110;-66
2024/03/06 08:13:59;;;;;;;15.82;10.23;;;;;7.20;98899.00;;;;4843202;29;20057;-66
2024/03/06 08:16:26;;;;;;;17.80;10.13;;;;;7.30;98901.00;;;;4844102;29;20556;-66
2024/03/06 08:18:52;;;;;;;15.43;9.10;;;;;7.50;98906.00;;;;4858462;29;20058;-66
2024/03/06 08:21:22;;;;;;;15.65;10.32;;;;;7.50;98902.00;;;;4843883;29;20084;-66
2024/03/06 08:23:49;;;;;;;14.45;9.65;;;;;7.50;98912.00;;;;4858264;29;20050;-66
2024/03/06 08:26:16;;;;;;;12.77;9.00;;;;;7.70;98916.00;;;;4858417;29;20049;-66
2024/03/06 08:28:43;;;;;;;15.60;9.27;;;;;7.80;98915.00;;;;4876821;29;20057;-66
2024/03/06 08:31:09;;;;;;;14.55;9.90;;;;;7.70;98914.00;;;;4861439;29;20054;-66
2024/03/06 08:33:37;;;;;;;12.55;9.25;;;;;7.60;98912.00;;;;4861478;29;20049;-65
2024/03/06 08:36:04;;;;;;;13.20;9.25;;;;;7.50;98909.00;;;;4876853;29;20136;-65
2024/03/06 08:38:31;;;;;;;14.27;8.88;;;;;7.50;98916.00;;;;4862171;29;20047;-66
2024/03/06 08:40:57;;;;;;;15.23;9.20;;;;;7.50;98911.00;;;;4860881;29;20104;-66
2024/03/06 08:43:24;;;;;;;13.90;9.32;;;;;7.50;98909.00;;;;4876305;29;20049;-66
2024/03/06 08:45:51;;;;;;;12.63;8.68;;;;;7.50;98914.00;;;;4862156;29;20495;-66
2024/03/06 08:48:18;;;;;;;14.88;10.00;;;;;7.50;98916.00;;;;4861802;29;20057;-66
2024/03/06 08:50:45;;;;;;;13.32;9.52;;;;;7.60;98917.00;;;;4861857;29;20407;-66
2024/03/06 08:53:13;;;;;;;14.45;9.98;;;;;7.70;98925.00;;;;4862134;29;20106;-66
2024/03/06 08:55:40;;;;;;;13.45;9.77;;;;;7.80;98925.00;;;;4845762;29;20053;-66
2024/03/06 08:58:08;;;;;;;15.43;9.40;;;;;7.90;98927.00;;;;4860701;29;20137;-66
2024/03/06 09:00:35;;;;;;;14.23;9.63;;;;;7.90;98937.00;;;;4860824;29;20064;-66
2024/03/06 09:03:02;;;;;;;14.77;9.98;;;;;8.00;98943.00;;;;4862284;29;20046;-66
2024/03/06 09:05:28;;;;;;;16.92;10.30;;;;;8.00;98947.00;;;;4861773;29;20045;-66
2024/03/06 09:07:57;;;;;;;16.30;11.90;;;;;8.00;98936.00;;;;4859944;29;20053;-66
2024/03/06 09:10:28;;;;;;;16.05;10.00;;;;;8.00;98935.00;;;;4861880;29;20037;-66
2024/03/06 09:12:54;;;;;;;11.98;9.27;;;;;8.00;98944.00;;;;4861882;29;20050;-67
2024/03/06 09:15:21;;;;;;;17.02;9.77;;;;;8.00;98936.00;;;;4860440;29;20132;-66
2024/03/06 09:17:48;;;;;;;14.50;9.52;;;;;7.90;98934.00;;;;4862025;29;20045;-66
2024/03/06 09:20:16;;;;;;;12.80;9.82;;;;;7.90;98935.00;;;;4844965;29;20050;-66
2024/03/06 09:22:43;;;;;;;12.40;9.50;;;;;8.00;98931.00;;;;4861863;29;20045;-66
2024/03/06 09:25:13;;;;;;;13.35;10.15;;;;;8.00;98933.00;;;;4875774;29;20049;-67
2024/03/06 09:27:42;;;;;;;13.57;9.52;;;;;8.20;98947.00;;;;4860226;29;20054;-66
2024/03/06 09:30:09;;;;;;;12.15;9.43;;;;;8.30;98941.00;;;;4861266;29;20046;-66
2024/03/06 09:32:37;;;;;;;12.43;9.82;;;;;8.40;98952.00;;;;4861314;29;20049;-66
2024/03/06 09:35:06;;;;;;;14.10;9.60;;;;;8.60;98952.00;;;;4861366;29;20049;-67
2024/03/06 09:37:32;;;;;;;15.02;9.52;;;;;8.80;98946.00;;;;4875477;29;20064;-66
2024/03/06 09:39:59;;;;;;;17.77;10.50;;;;;9.00;98955.00;;;;4860250;29;20049;-66
2024/03/06 09:42:26;;;;;;;13.00;9.60;;;;;9.10;98958.00;;;;4861109;29;20082;-66
2024/03/06 09:44:52;;;;;;;12.75;9.25;;;;;9.40;98962.00;;;;4861088;29;20077;-66
2024/03/06 09:47:26;;;;;;;11.60;9.15;;;;;9.60;98956.00;;;;4860088;29;20104;-66
2024/03/06 09:49:53;;;;;;;;;;;;;9.90;98962.00;;;;4875781;29;20148;-66
2024/03/06 09:52:24;;;;;;;20.33;14.05;;;;;10.00;98953.00;;;;4861019;29;19931;-66
2024/03/06 09:54:54;;;;;;;19.27;13.07;;;;;10.00;98962.00;;;;4861693;29;20081;-66
2024/03/06 09:57:20;;;;;;;14.50;10.10;;;;;10.20;98969.00;;;;4860219;29;20053;-67
2024/03/06 09:59:47;;;;;;;19.02;13.13;;;;;10.40;98961.00;;;;4860934;29;20129;-66
2024/03/06 10:02:34;;;;;;;16.85;11.88;;;;;10.50;98971.00;;;;4859770;29;20499;-67
2024/03/06 10:05:01;;;;;;;15.68;11.30;;;;;10.50;98969.00;;;;4861514;29;20077;-67
2024/03/06 10:07:27;;;;;;;17.67;11.25;;;;;10.50;98976.00;;;;4861004;29;20105;-66
2024/03/06 10:09:55;;;;;;;13.90;10.98;;;;;10.60;98975.00;;;;4860107;29;20113;-66
2024/03/06 10:12:22;;;;;;;14.23;10.55;;;;;10.70;98978.00;;;;4860085;29;20049;-66
2024/03/06 10:14:51;;;;;;;12.73;9.57;;;;;10.90;98982.00;;;;4861347;29;20077;-68
2024/03/06 10:17:26;;;;;;;13.70;10.18;;;;;11.10;98983.00;;;;4861193;29;20059;-67
2024/03/06 10:19:54;;;;;;;13.43;9.80;;;;;11.20;98975.00;;;;4862897;29;20061;-67
2024/03/06 10:22:24;;;;;;;16.63;9.75;;;;;11.20;98982.00;;;;4864648;29;20045;-67
2024/03/06 10:24:56;;;;;;;12.18;9.27;;;;;11.20;98975.00;;;;4864864;29;20064;-68
2024/03/06 10:27:22;;;;;;;13.98;10.00;;;;;11.40;98978.00;;;;4863961;29;20159;-68
2024/03/06 10:30:02;;;;;;;13.75;10.35;;;;;11.30;98972.00;;;;4848281;29;20053;-68
2024/03/06 10:32:31;;;;;;;11.77;9.75;;;;;11.40;98980.00;;;;4865022;29;20045;-67
2024/03/06 10:34:58;;;;;;;12.32;9.63;;;;;11.30;98976.00;;;;4863511;29;20049;-67
2024/03/06 10:37:25;;;;;;;10.68;8.70;;;;;11.20;98971.00;;;;4864471;29;20046;-66
2024/03/06 10:39:54;;;;;;;12.70;9.30;;;;;11.30;98981.00;;;;4864611;29;20053;-66
2024/03/06 10:42:23;;;;;;;12.38;9.15;;;;;11.20;98982.00;;;;4863623;29;20144;-66
2024/03/06 10:44:56;;;;;;;12.85;9.18;;;;;11.20;98978.00;;;;4864822;29;20480;-67
2024/03/06 10:47:25;;;;;;;7.63;6.63;;;;;11.20;98978.00;;;;4863289;29;20534;-66
2024/03/06 10:49:54;;;;;;;8.52;5.68;;;;;11.20;98984.00;;;;4863299;29;20092;-67
2024/03/06 10:52:21;;;;;;;9.50;6.60;;;;;11.30;98972.00;;;;4864370;29;20048;-67
2024/03/06 10:54:48;;;;;;;11.02;6.57;;;;;11.40;98986.00;;;;4863040;29;20490;-67
2024/03/06 10:57:15;;;;;;;9.30;7.10;;;;;11.50;98987.00;;;;4864811;29;20057;-67
2024/03/06 10:59:42;;;;;;;10.25;6.55;;;;;11.60;98984.00;;;;4863090;29;20064;-67
2024/03/06 11:02:10;;;;;;;11.65;8.57;;;;;11.50;98987.00;;;;4864151;29;20555;-67
2024/03/06 11:04:40;;;;;;;8.90;7.10;;;;;11.60;98981.00;;;;4862995;29;20050;-67
2024/03/06 11:07:08;;;;;;;7.20;5.13;;;;;11.80;98979.00;;;;4879428;29;20072;-67
2024/03/06 11:09:39;;;;;;;7.25;4.63;;;;;12.10;98972.00;;;;4863128;29;20137;-66
2024/03/06 11:12:06;;;;;;;5.13;3.85;;;;;12.20;98974.00;;;;4863235;29;20147;-67
2024/03/06 11:14:38;;;;;;;5.45;4.47;;;;;12.40;98983.00;;;;4864864;29;20054;-66
2024/03/06 11:17:07;;;;;;;6.82;4.72;;;;;12.40;98980.00;;;;4880032;29;20085;-66
2024/03/06 11:20:19;;;;;;;7.30;4.30;;;;;12.10;98978.00;;;;4863230;29;20053;-66
2024/03/06 11:22:58;;;;;;;5.45;3.70;;;;;12.20;98973.00;;;;4843328;29;20079;-67
2024/03/06 11:25:45;;;;;;;4.30;3.50;;;;;12.20;98977.00;;;;4877630;29;20100;-67
2024/03/06 11:28:27;;;;;;;4.28;3.13;;;;;12.20;98980.00;;;;4848263;29;20144;-67
2024/03/06 11:30:53;;;;;;;4.80;3.70;;;;;12.30;98973.00;;;;4862015;29;20459;-67
2024/03/06 11:33:20;;;;;;;5.32;2.95;;;;;12.40;98972.00;;;;4864177;29;20045;-67
2024/03/06 11:36:20;;;;;;;3.55;2.72;;;;;12.70;98973.00;;;;4862650;29;20056;-68
2024/03/06 11:38:52;;;;;;;4.60;2.88;;;;;13.00;98978.00;;;;4863428;29;20045;-67
2024/03/06 11:41:20;;;;;;;3.53;2.70;;;;;13.20;98982.00;;;;4862109;29;20053;-67
2024/03/06 11:43:53;;;;;;;3.05;2.70;;;;;13.20;98977.00;;;;4862387;29;20144;-67
2024/03/06 11:46:21;;;;;;;3.40;1.95;;;;;13.20;98977.00;;;;4862396;29;20109;-67
2024/03/06 11:48:55;;;;;;;2.67;2.22;;;;;13.30;98976.00;;;;4878034;29;20060;-67
2024/03/06 11:51:23;;;;;;;3.45;2.58;;;;;13.30;98974.00;;;;4862993;29;20052;-67
2024/03/06 11:53:50;;;;;;;4.03;2.25;;;;;13.30;98971.00;;;;4863141;29;20117;-67
2024/03/06 11:56:19;;;;;;;2.97;2.38;;;;;13.40;98973.00;;;;4861715;29;20575;-67
2024/03/06 11:58:46;;;;;;;3.13;2.10;;;;;13.40;98973.00;;;;4862949;29;20045;-67
2024/03/06 12:01:16;;;;;;;3.00;2.40;;;;;13.60;98985.00;;;;4877355;29;20049;-68
2024/03/06 12:03:43;;;;;;;3.30;2.28;;;;;13.70;98972.00;;;;4863565;29;20080;-67
2024/03/06 12:06:10;;;;;;;2.28;2.08;;;;;13.70;98974.00;;;;4863018;29;20124;-67
2024/03/06 12:08:36;;;;;;;3.45;2.33;;;;;13.90;98974.00;;;;4862890;29;20049;-67
2024/03/06 12:11:07;;;;;;;3.60;3.13;;;;;14.00;98976.00;;;;4862692;29;20064;-67
2024/03/06 12:13:35;;;;;;;7.35;3.40;;;;;13.80;98969.00;;;;4862906;29;20128;-68
2024/03/06 12:16:06;;;;;;;6.93;3.33;;;;;13.80;98963.00;;;;4862925;29;20065;-67
2024/03/06 12:18:33;;;;;;;5.20;2.85;;;;;14.00;98968.00;;;;4862638;29;20049;-67
2024/03/06 12:21:02;;;;;;;5.80;3.10;;;;;14.10;98961.00;;;;4862488;29;20041;-67
2024/03/06 12:23:29;;;;;;;3.85;3.20;;;;;14.40;98967.00;;;;4861313;29;20511;-67
2024/03/06 12:26:08;;;;;;;4.47;2.65;;;;;14.50;98968.00;;;;4862458;29;20077;-67
2024/03/06 12:28:36;;;;;;;3.83;2.10;;;;;14.30;98967.00;;;;4861377;29;20057;-67